sensor_id;sensor_type;location;lat;lon;timestamp;pressure;altitude;pressure_sealevel;temperature;humidity
48968;BME280;46511;53.148;8.204;2024-02-28T00:01:07;101951.59;;;5.09;100.00
48968;BME280;46511;53.148;8.204;2024-02-28T00:03:38;101950.03;;;4.96;100.00
48968;BME280;46511;53.148;8.204;2024-02-28T00:06:10;101946.69;;;4.86;100.00
48968;BME280;46511;53.148;8.204;2024-02-28T00:08:41;101958.25;;;4.73;100.00
48968;BME280;46511;53.148;8.204;2024-02-28T00:11:12;101962.06;;;4.51;100.00
48968;BME280;46511;53.148;8.204;2024-02-28T00:13:44;101966.56;;;4.43;100.00
48968;BME280;46511;53.148;8.204;2024-02-28T00:16:15;101957.94;;;4.32;100.00
48968;BME280;46511;53.148;8.204;2024-02-28T00:18:46;101953.59;;;4.27;100.00
48968;BME280;46511;53.148;8.204;2024-02-28T00:21:18;101948.38;;;4.24;100.00
48968;BME280;46511;53.148;8.204;2024-02-28T00:23:49;101946.63;;;4.23;100.00
48968;BME280;46511;53.148;8.204;2024-02-28T00:26:21;101932.63;;;4.21;100.00
48968;BME280;46511;53.148;8.204;2024-02-28T00:28:52;101927.31;;;4.24;100.00
48968;BME280;46511;53.148;8.204;2024-02-28T00:31:25;101932.47;;;4.37;100.00
48968;BME280;46511;53.148;8.204;2024-02-28T00:33:56;101935.84;;;4.45;100.00
48968;BME280;46511;53.148;8.204;2024-02-28T00:36:28;101944.59;;;4.47;100.00
48968;BME280;46511;53.148;8.204;2024-02-28T00:38:59;101958.72;;;4.40;100.00
48968;BME280;46511;53.148;8.204;2024-02-28T00:41:30;101951.78;;;4.33;100.00
48968;BME280;46511;53.148;8.204;2024-02-28T00:44:02;101944.94;;;4.19;100.00
48968;BME280;46511;53.148;8.204;2024-02-28T00:46:34;101949.44;;;4.07;100.00
48968;BME280;46511;53.148;8.204;2024-02-28T00:49:05;101941.59;;;4.05;100.00
48968;BME280;46511;53.148;8.204;2024-02-28T00:51:37;101941.63;;;4.02;100.00
48968;BME280;46511;53.148;8.204;2024-02-28T00:54:08;101949.53;;;4.00;100.00
48968;BME280;46511;53.148;8.204;2024-02-28T00:56:40;101947.81;;;3.95;100.00
48968;BME280;46511;53.148;8.204;2024-02-28T00:59:11;101954.03;;;3.89;100.00
48968;BME280;46511;53.148;8.204;2024-02-28T01:01:43;101951.28;;;4.00;100.00
48968;BME280;46511;53.148;8.204;2024-02-28T01:04:15;101952.88;;;4.15;100.00
48968;BME280;46511;53.148;8.204;2024-02-28T01:06:46;101949.25;;;4.26;100.00
48968;BME280;46511;53.148;8.204;2024-02-28T01:09:18;101944.97;;;4.15;100.00
48968;BME280;46511;53.148;8.204;2024-02-28T01:11:50;101939.78;;;4.07;100.00
48968;BME280;46511;53.148;8.204;2024-02-28T01:14:21;101936.47;;;3.93;100.00
48968;BME280;46511;53.148;8.204;2024-02-28T01:16:53;101928.63;;;3.90;100.00
48968;BME280;46511;53.148;8.204;2024-02-28T01:19:24;101935.75;;;3.77;100.00
48968;BME280;46511;53.148;8.204;2024-02-28T01:21:55;101926.09;;;3.78;100.00
48968;BME280;46511;53.148;8.204;2024-02-28T01:24:27;101942.59;;;3.93;100.00
48968;BME280;46511;53.148;8.204;2024-02-28T01:26:58;101941.88;;;3.81;100.00
48968;BME280;46511;53.148;8.204;2024-02-28T01:29:29;101940.09;;;3.83;100.00
48968;BME280;46511;53.148;8.204;2024-02-28T01:32:01;101933.03;;;3.85;100.00
48968;BME280;46511;53.148;8.204;2024-02-28T01:34:32;101938.25;;;3.88;100.00
48968;BME280;46511;53.148;8.204;2024-02-28T01:37:03;101936.50;;;3.91;100.00
48968;BME280;46511;53.148;8.204;2024-02-28T01:39:35;101947.00;;;3.91;100.00
48968;BME280;46511;53.148;8.204;2024-02-28T01:42:06;101946.16;;;3.88;100.00
48968;BME280;46511;53.148;8.204;2024-02-28T01:44:40;101951.53;;;3.76;100.00
48968;BME280;46511;53.148;8.204;2024-02-28T01:47:15;101949.78;;;3.79;100.00
48968;BME280;46511;53.148;8.204;2024-02-28T01:49:48;101946.22;;;3.82;100.00
48968;BME280;46511;53.148;8.204;2024-02-28T01:52:21;101953.16;;;3.87;100.00
48968;BME280;46511;53.148;8.204;2024-02-28T01:54:53;101953.16;;;3.87;100.00
48968;BME280;46511;53.148;8.204;2024-02-28T01:57:25;101952.28;;;3.87;100.00
48968;BME280;46511;53.148;8.204;2024-02-28T01:59:58;101954.03;;;3.91;100.00
48968;BME280;46511;53.148;8.204;2024-02-28T02:02:30;101956.59;;;3.95;100.00
48968;BME280;46511;53.148;8.204;2024-02-28T02:05:02;101955.66;;;4.01;100.00
48968;BME280;46511;53.148;8.204;2024-02-28T02:07:34;101960.78;;;4.12;100.00
48968;BME280;46511;53.148;8.204;2024-02-28T02:10:06;101948.47;;;4.15;100.00
48968;BME280;46511;53.148;8.204;2024-02-28T02:12:40;101940.34;;;4.35;100.00
48968;BME280;46511;53.148;8.204;2024-02-28T02:15:11;101938.47;;;4.46;100.00
48968;BME280;46511;53.148;8.204;2024-02-28T02:17:42;101939.22;;;4.56;100.00
48968;BME280;46511;53.148;8.204;2024-02-28T02:20:14;101943.50;;;4.65;100.00
48968;BME280;46511;53.148;8.204;2024-02-28T02:22:46;101942.56;;;4.67;100.00
48968;BME280;46511;53.148;8.204;2024-02-28T02:25:17;101942.56;;;4.67;100.00
48968;BME280;46511;53.148;8.204;2024-02-28T02:27:49;101945.00;;;4.81;100.00
48968;BME280;46511;53.148;8.204;2024-02-28T02:30:20;101943.47;;;4.66;100.00
48968;BME280;46511;53.148;8.204;2024-02-28T02:32:52;101946.25;;;4.54;100.00
48968;BME280;46511;53.148;8.204;2024-02-28T02:35:18;101943.75;;;4.43;100.00
48968;BME280;46511;53.148;8.204;2024-02-28T02:37:49;101939.28;;;4.50;100.00
48968;BME280;46511;53.148;8.204;2024-02-28T02:40:21;101945.97;;;4.75;100.00
48968;BME280;46511;53.148;8.204;2024-02-28T02:42:52;101941.78;;;4.59;100.00
48968;BME280;46511;53.148;8.204;2024-02-28T02:45:23;101945.16;;;4.70;100.00
48968;BME280;46511;53.148;8.204;2024-02-28T02:47:54;101941.13;;;4.43;100.00
48968;BME280;46511;53.148;8.204;2024-02-28T02:50:26;101941.09;;;4.45;100.00
48968;BME280;46511;53.148;8.204;2024-02-28T02:52:57;101933.97;;;4.53;100.00
48968;BME280;46511;53.148;8.204;2024-02-28T02:55:29;101944.31;;;4.68;100.00
48968;BME280;46511;53.148;8.204;2024-02-28T02:58:01;101946.84;;;4.73;100.00
48968;BME280;46511;53.148;8.204;2024-02-28T03:00:33;101952.25;;;4.64;100.00
48968;BME280;46511;53.148;8.204;2024-02-28T03:03:04;101955.25;;;4.38;100.00
48968;BME280;46511;53.148;8.204;2024-02-28T03:05:36;101963.00;;;4.48;100.00
48968;BME280;46511;53.148;8.204;2024-02-28T03:08:08;101962.31;;;4.31;100.00
48968;BME280;46511;53.148;8.204;2024-02-28T03:10:39;101959.09;;;4.06;100.00
48968;BME280;46511;53.148;8.204;2024-02-28T03:13:10;101968.53;;;4.24;100.00
48968;BME280;46511;53.148;8.204;2024-02-28T03:15:41;101975.66;;;4.14;100.00
48968;BME280;46511;53.148;8.204;2024-02-28T03:18:13;101967.72;;;4.20;100.00
48968;BME280;46511;53.148;8.204;2024-02-28T03:20:44;101973.78;;;4.27;100.00
48968;BME280;46511;53.148;8.204;2024-02-28T03:23:10;101963.50;;;4.04;100.00
48968;BME280;46511;53.148;8.204;2024-02-28T03:25:42;101968.63;;;4.18;100.00
48968;BME280;46511;53.148;8.204;2024-02-28T03:28:13;101962.66;;;4.02;100.00
48968;BME280;46511;53.148;8.204;2024-02-28T03:30:44;101956.25;;;4.27;100.00
48968;BME280;46511;53.148;8.204;2024-02-28T03:33:16;101957.13;;;4.26;100.00
48968;BME280;46511;53.148;8.204;2024-02-28T03:35:47;101955.66;;;4.01;100.00
48968;BME280;46511;53.148;8.204;2024-02-28T03:38:18;101954.13;;;3.79;100.00
48968;BME280;46511;53.148;8.204;2024-02-28T03:40:50;101954.47;;;4.28;100.00
48968;BME280;46511;53.148;8.204;2024-02-28T03:43:16;101953.38;;;4.46;100.00
48968;BME280;46511;53.148;8.204;2024-02-28T03:45:47;101959.72;;;4.29;100.00
48968;BME280;46511;53.148;8.204;2024-02-28T03:48:14;101944.28;;;3.97;100.00
48968;BME280;46511;53.148;8.204;2024-02-28T03:50:46;101945.28;;;3.86;100.00
48968;BME280;46511;53.148;8.204;2024-02-28T03:53:17;101950.53;;;3.89;100.00
48968;BME280;46511;53.148;8.204;2024-02-28T03:55:50;101946.91;;;4.00;100.00
48968;BME280;46511;53.148;8.204;2024-02-28T03:58:21;101955.25;;;3.55;100.00
48968;BME280;46511;53.148;8.204;2024-02-28T04:00:52;101951.59;;;3.68;100.00
48968;BME280;46511;53.148;8.204;2024-02-28T04:03:24;101951.84;;;3.43;100.00
48968;BME280;46511;53.148;8.204;2024-02-28T04:05:55;101950.13;;;3.38;100.00
48968;BME280;46511;53.148;8.204;2024-02-28T04:08:26;101945.75;;;3.38;100.00
48968;BME280;46511;53.148;8.204;2024-02-28T04:10:58;101955.75;;;3.92;100.00
48968;BME280;46511;53.148;8.204;2024-02-28T04:13:29;101953.09;;;3.93;100.00
48968;BME280;46511;53.148;8.204;2024-02-28T04:16:01;101959.59;;;3.57;100.00
48968;BME280;46511;53.148;8.204;2024-02-28T04:18:34;101952.88;;;4.13;100.00
48968;BME280;46511;53.148;8.204;2024-02-28T04:21:05;101953.81;;;4.09;100.00
48968;BME280;46511;53.148;8.204;2024-02-28T04:23:36;101960.72;;;4.16;100.00
48968;BME280;46511;53.148;8.204;2024-02-28T04:26:09;101955.56;;;4.07;100.00
48968;BME280;46511;53.148;8.204;2024-02-28T04:28:41;101953.84;;;4.05;100.00
48968;BME280;46511;53.148;8.204;2024-02-28T04:31:13;101957.00;;;4.36;100.00
48968;BME280;46511;53.148;8.204;2024-02-28T04:33:44;101952.81;;;4.19;100.00
48968;BME280;46511;53.148;8.204;2024-02-28T04:36:16;101959.75;;;4.26;100.00
48968;BME280;46511;53.148;8.204;2024-02-28T04:38:47;101962.34;;;4.29;100.00
48968;BME280;46511;53.148;8.204;2024-02-28T04:41:19;101963.38;;;4.18;100.00
48968;BME280;46511;53.148;8.204;2024-02-28T04:43:50;101964.25;;;4.15;100.00
48968;BME280;46511;53.148;8.204;2024-02-28T04:46:16;101964.13;;;4.27;100.00
48968;BME280;46511;53.148;8.204;2024-02-28T04:48:48;101967.59;;;4.29;100.00
48968;BME280;46511;53.148;8.204;2024-02-28T04:51:19;101959.97;;;4.05;100.00
48968;BME280;46511;53.148;8.204;2024-02-28T04:53:50;101964.34;;;4.09;100.00
48968;BME280;46511;53.148;8.204;2024-02-28T04:56:24;101966.47;;;4.50;100.00
48968;BME280;46511;53.148;8.204;2024-02-28T04:58:55;101962.22;;;4.40;100.00
48968;BME280;46511;53.148;8.204;2024-02-28T05:01:27;101969.53;;;4.14;100.00
48968;BME280;46511;53.148;8.204;2024-02-28T05:03:59;101962.88;;;3.82;100.00
48968;BME280;46511;53.148;8.204;2024-02-28T05:06:30;101965.44;;;3.85;100.00
48968;BME280;46511;53.148;8.204;2024-02-28T05:09:01;101972.59;;;3.72;100.00
48968;BME280;46511;53.148;8.204;2024-02-28T05:11:34;101968.16;;;3.81;100.00
48968;BME280;46511;53.148;8.204;2024-02-28T05:14:06;101973.88;;;4.19;100.00
48968;BME280;46511;53.148;8.204;2024-02-28T05:16:37;101980.59;;;4.42;100.00
48968;BME280;46511;53.148;8.204;2024-02-28T05:19:08;101969.56;;;4.12;100.00
48968;BME280;46511;53.148;8.204;2024-02-28T05:21:40;101974.91;;;4.03;100.00
48968;BME280;46511;53.148;8.204;2024-02-28T05:24:08;101976.59;;;4.10;100.00
48968;BME280;46511;53.148;8.204;2024-02-28T05:26:39;101981.81;;;4.13;100.00
48968;BME280;46511;53.148;8.204;2024-02-28T05:29:11;101970.44;;;4.13;100.00
48968;BME280;46511;53.148;8.204;2024-02-28T05:31:42;101963.59;;;3.95;100.00
48968;BME280;46511;53.148;8.204;2024-02-28T05:34:14;101966.75;;;4.26;100.00
48968;BME280;46511;53.148;8.204;2024-02-28T05:36:47;101972.22;;;4.09;100.00
48968;BME280;46511;53.148;8.204;2024-02-28T05:39:19;101976.59;;;4.07;100.00
48968;BME280;46511;53.148;8.204;2024-02-28T05:41:51;101987.25;;;3.98;100.00
48968;BME280;46511;53.148;8.204;2024-02-28T05:44:25;101987.09;;;4.12;100.00
48968;BME280;46511;53.148;8.204;2024-02-28T05:46:56;101981.81;;;4.13;100.00
48968;BME280;46511;53.148;8.204;2024-02-28T05:49:27;101984.50;;;4.10;100.00
48968;BME280;46511;53.148;8.204;2024-02-28T05:51:54;101984.47;;;4.12;100.00
48968;BME280;46511;53.148;8.204;2024-02-28T05:54:25;101992.59;;;3.89;100.00
48968;BME280;46511;53.148;8.204;2024-02-28T05:56:56;101984.50;;;4.07;100.00
48968;BME280;46511;53.148;8.204;2024-02-28T05:59:27;101997.88;;;4.63;100.00
48968;BME280;46511;53.148;8.204;2024-02-28T06:01:59;101993.88;;;4.33;100.00
48968;BME280;46511;53.148;8.204;2024-02-28T06:04:30;101986.38;;;3.96;100.00
48968;BME280;46511;53.148;8.204;2024-02-28T06:07:01;101988.03;;;4.05;100.00
48968;BME280;46511;53.148;8.204;2024-02-28T06:09:33;101983.50;;;4.20;100.00
48968;BME280;46511;53.148;8.204;2024-02-28T06:12:04;101987.97;;;4.12;100.00
48968;BME280;46511;53.148;8.204;2024-02-28T06:14:36;101993.47;;;3.89;100.00
48968;BME280;46511;53.148;8.204;2024-02-28T06:17:08;101993.25;;;4.11;100.00
48968;BME280;46511;53.148;8.204;2024-02-28T06:19:40;102002.03;;;4.08;100.00
48968;BME280;46511;53.148;8.204;2024-02-28T06:22:11;101999.25;;;4.22;100.00
48968;BME280;46511;53.148;8.204;2024-02-28T06:24:42;102010.50;;;4.36;100.00
48968;BME280;46511;53.148;8.204;2024-02-28T06:27:14;102009.38;;;4.57;100.00
48968;BME280;46511;53.148;8.204;2024-02-28T06:29:46;102018.06;;;4.65;100.00
48968;BME280;46511;53.148;8.204;2024-02-28T06:32:17;102017.06;;;4.72;100.00
48968;BME280;46511;53.148;8.204;2024-02-28T06:34:49;102017.91;;;4.76;100.00
48968;BME280;46511;53.148;8.204;2024-02-28T06:37:20;102019.16;;;4.44;100.00
48968;BME280;46511;53.148;8.204;2024-02-28T06:39:51;102030.59;;;4.42;100.00
48968;BME280;46511;53.148;8.204;2024-02-28T06:42:25;102033.31;;;4.33;100.00
48968;BME280;46511;53.148;8.204;2024-02-28T06:44:56;102042.75;;;4.55;100.00
48968;BME280;46511;53.148;8.204;2024-02-28T06:47:28;102043.56;;;4.58;100.00
48968;BME280;46511;53.148;8.204;2024-02-28T06:49:59;102043.88;;;4.29;100.00
48968;BME280;46511;53.148;8.204;2024-02-28T06:52:30;102050.47;;;4.69;100.00
48968;BME280;46511;53.148;8.204;2024-02-28T06:55:02;102046.69;;;4.90;100.00
48968;BME280;46511;53.148;8.204;2024-02-28T06:57:37;102048.97;;;4.48;100.00
48968;BME280;46511;53.148;8.204;2024-02-28T07:00:10;102047.88;;;4.64;100.00
48968;BME280;46511;53.148;8.204;2024-02-28T07:02:44;102051.69;;;4.36;100.00
48968;BME280;46511;53.148;8.204;2024-02-28T07:05:16;102049.69;;;4.59;100.00
48968;BME280;46511;53.148;8.204;2024-02-28T07:07:47;102049.75;;;4.56;100.00
48968;BME280;46511;53.148;8.204;2024-02-28T07:10:19;102045.84;;;4.87;100.00
48968;BME280;46511;53.148;8.204;2024-02-28T07:12:50;102047.63;;;4.82;100.00
48968;BME280;46511;53.148;8.204;2024-02-28T07:15:21;102042.72;;;4.56;100.00
48968;BME280;46511;53.148;8.204;2024-02-28T07:17:53;102044.38;;;4.62;100.00
48968;BME280;46511;53.148;8.204;2024-02-28T07:20:24;102048.09;;;4.46;100.00
48968;BME280;46511;53.148;8.204;2024-02-28T07:22:55;102048.31;;;4.27;100.00
48968;BME280;46511;53.148;8.204;2024-02-28T07:25:27;102050.81;;;4.38;100.00
48968;BME280;46511;53.148;8.204;2024-02-28T07:27:58;102053.88;;;4.77;100.00
48968;BME280;46511;53.148;8.204;2024-02-28T07:30:28;102058.22;;;4.79;100.00
48968;BME280;46511;53.148;8.204;2024-02-28T07:32:59;102052.44;;;4.48;100.00
48968;BME280;46511;53.148;8.204;2024-02-28T07:35:31;102054.16;;;4.52;100.00
48968;BME280;46511;53.148;8.204;2024-02-28T07:38:02;102048.00;;;4.52;100.00
48968;BME280;46511;53.148;8.204;2024-02-28T07:40:34;102061.94;;;4.65;100.00
48968;BME280;46511;53.148;8.204;2024-02-28T07:43:05;102072.31;;;4.75;100.00
48968;BME280;46511;53.148;8.204;2024-02-28T07:45:36;102070.66;;;5.34;100.00
48968;BME280;46511;53.148;8.204;2024-02-28T07:48:08;102073.94;;;4.85;100.00
48968;BME280;46511;53.148;8.204;2024-02-28T07:50:39;102075.09;;;4.65;100.00
48968;BME280;46511;53.148;8.204;2024-02-28T07:53:12;102070.66;;;4.68;100.00
48968;BME280;46511;53.148;8.204;2024-02-28T07:55:44;102075.75;;;4.83;100.00
48968;BME280;46511;53.148;8.204;2024-02-28T07:58:16;102071.44;;;4.75;100.00
48968;BME280;46511;53.148;8.204;2024-02-28T08:00:47;102070.81;;;4.53;100.00
48968;BME280;46511;53.148;8.204;2024-02-28T08:03:19;102082.50;;;5.03;100.00
48968;BME280;46511;53.148;8.204;2024-02-28T08:05:50;102081.72;;;4.95;100.00
48968;BME280;46511;53.148;8.204;2024-02-28T08:08:17;102087.69;;;5.09;100.00
48968;BME280;46511;53.148;8.204;2024-02-28T08:10:48;102084.75;;;5.30;100.00
48968;BME280;46511;53.148;8.204;2024-02-28T08:13:20;102092.69;;;5.27;100.00
48968;BME280;46511;53.148;8.204;2024-02-28T08:15:51;102090.84;;;5.35;100.00
48968;BME280;46511;53.148;8.204;2024-02-28T08:18:22;102105.84;;;5.32;100.00
48968;BME280;46511;53.148;8.204;2024-02-28T08:20:54;102100.94;;;5.04;100.00
48968;BME280;46511;53.148;8.204;2024-02-28T08:23:31;102096.44;;;5.09;100.00
48968;BME280;46511;53.148;8.204;2024-02-28T08:25:57;102102.50;;;5.18;100.00
48968;BME280;46511;53.148;8.204;2024-02-28T08:28:29;102103.25;;;5.27;100.00
48968;BME280;46511;53.148;8.204;2024-02-28T08:31:00;102100.06;;;5.04;100.00
48968;BME280;46511;53.148;8.204;2024-02-28T08:33:31;102095.75;;;5.58;100.00
48968;BME280;46511;53.148;8.204;2024-02-28T08:36:03;102097.75;;;5.44;100.00
48968;BME280;46511;53.148;8.204;2024-02-28T08:38:35;102096.06;;;5.37;100.00
48968;BME280;46511;53.148;8.204;2024-02-28T08:41:08;102098.03;;;5.24;100.00
48968;BME280;46511;53.148;8.204;2024-02-28T08:43:39;102099.16;;;5.05;100.00
48968;BME280;46511;53.148;8.204;2024-02-28T08:46:14;102111.72;;;5.48;100.00
48968;BME280;46511;53.148;8.204;2024-02-28T08:48:46;102108.59;;;5.20;100.00
48968;BME280;46511;53.148;8.204;2024-02-28T08:51:18;102099.94;;;5.13;100.00
48968;BME280;46511;53.148;8.204;2024-02-28T08:53:49;102109.28;;;5.35;100.00
48968;BME280;46511;53.148;8.204;2024-02-28T08:56:23;102113.34;;;5.58;100.00
48968;BME280;46511;53.148;8.204;2024-02-28T08:58:54;102111.97;;;5.32;100.00
48968;BME280;46511;53.148;8.204;2024-02-28T09:01:25;102112.19;;;5.76;100.00
48968;BME280;46511;53.148;8.204;2024-02-28T09:03:57;102118.19;;;5.85;100.00
48968;BME280;46511;53.148;8.204;2024-02-28T09:06:28;102120.06;;;5.80;100.00
48968;BME280;46511;53.148;8.204;2024-02-28T09:08:59;102125.50;;;5.68;100.00
48968;BME280;46511;53.148;8.204;2024-02-28T09:11:31;102131.81;;;6.15;100.00
48968;BME280;46511;53.148;8.204;2024-02-28T09:14:02;102132.28;;;5.84;100.00
48968;BME280;46511;53.148;8.204;2024-02-28T09:16:34;102126.66;;;6.09;100.00
48968;BME280;46511;53.148;8.204;2024-02-28T09:19:05;102128.00;;;6.33;100.00
48968;BME280;46511;53.148;8.204;2024-02-28T09:21:36;102132.22;;;5.90;100.00
48968;BME280;46511;53.148;8.204;2024-02-28T09:24:08;102132.09;;;5.99;100.00
48968;BME280;46511;53.148;8.204;2024-02-28T09:26:39;102145.44;;;6.41;100.00
48968;BME280;46511;53.148;8.204;2024-02-28T09:29:11;102141.53;;;6.62;100.00
48968;BME280;46511;53.148;8.204;2024-02-28T09:31:42;102149.50;;;6.10;100.00
48968;BME280;46511;53.148;8.204;2024-02-28T09:34:13;102153.66;;;5.66;100.00
48968;BME280;46511;53.148;8.204;2024-02-28T09:36:45;102150.66;;;6.44;100.00
48968;BME280;46511;53.148;8.204;2024-02-28T09:39:16;102157.69;;;6.45;100.00
48968;BME280;46511;53.148;8.204;2024-02-28T09:41:48;102151.78;;;6.31;100.00
48968;BME280;46511;53.148;8.204;2024-02-28T09:44:22;102146.22;;;6.48;100.00
48968;BME280;46511;53.148;8.204;2024-02-28T09:46:54;102147.53;;;6.70;100.00
48968;BME280;46511;53.148;8.204;2024-02-28T09:49:26;102145.50;;;6.38;100.00
48968;BME280;46511;53.148;8.204;2024-02-28T09:51:58;102135.50;;;7.00;100.00
48968;BME280;46511;53.148;8.204;2024-02-28T09:54:30;102139.53;;;6.75;100.00
48968;BME280;46511;53.148;8.204;2024-02-28T09:57:01;102150.78;;;6.86;100.00
48968;BME280;46511;53.148;8.204;2024-02-28T09:59:34;102152.41;;;6.93;100.00
48968;BME280;46511;53.148;8.204;2024-02-28T10:02:07;102154.97;;;6.96;100.00
48968;BME280;46511;53.148;8.204;2024-02-28T10:04:41;102147.94;;;6.49;100.00
48968;BME280;46511;53.148;8.204;2024-02-28T10:07:13;102151.72;;;6.36;100.00
48968;BME280;46511;53.148;8.204;2024-02-28T10:09:44;102139.75;;;6.63;100.00
48968;BME280;46511;53.148;8.204;2024-02-28T10:12:11;102141.97;;;6.39;100.00
48968;BME280;46511;53.148;8.204;2024-02-28T10:14:42;102135.75;;;6.42;100.00
48968;BME280;46511;53.148;8.204;2024-02-28T10:17:13;102142.03;;;6.35;100.00
48968;BME280;46511;53.148;8.204;2024-02-28T10:19:45;102141.78;;;6.95;100.00
48968;BME280;46511;53.148;8.204;2024-02-28T10:22:16;102161.16;;;6.95;100.00
48968;BME280;46511;53.148;8.204;2024-02-28T10:24:47;102143.09;;;6.74;100.00
48968;BME280;46511;53.148;8.204;2024-02-28T10:27:19;102145.63;;;6.78;100.00
48968;BME280;46511;53.148;8.204;2024-02-28T10:29:51;102141.78;;;6.48;100.00
48968;BME280;46511;53.148;8.204;2024-02-28T10:32:22;102146.06;;;7.02;100.00
48968;BME280;46511;53.148;8.204;2024-02-28T10:34:54;102140.63;;;7.08;100.00
48968;BME280;46511;53.148;8.204;2024-02-28T10:37:26;102142.28;;;6.69;100.00
48968;BME280;46511;53.148;8.204;2024-02-28T10:39:59;102146.78;;;7.08;100.00
48968;BME280;46511;53.148;8.204;2024-02-28T10:42:31;102150.72;;;6.87;100.00
48968;BME280;46511;53.148;8.204;2024-02-28T10:45:03;102156.34;;;7.56;100.00
48968;BME280;46511;53.148;8.204;2024-02-28T10:47:34;102161.16;;;6.95;100.00
48968;BME280;46511;53.148;8.204;2024-02-28T10:50:06;102153.31;;;6.92;100.00
48968;BME280;46511;53.148;8.204;2024-02-28T10:52:39;102147.50;;;7.16;100.00
48968;BME280;46511;53.148;8.204;2024-02-28T10:55:15;102151.81;;;7.62;100.00
48968;BME280;46511;53.148;8.204;2024-02-28T10:57:54;102161.81;;;7.06;100.00
48968;BME280;46511;53.148;8.204;2024-02-28T11:00:33;102153.88;;;7.48;100.00
48968;BME280;46511;53.148;8.204;2024-02-28T11:03:06;102156.06;;;8.05;100.00
48968;BME280;46511;53.148;8.204;2024-02-28T11:05:38;102154.34;;;8.04;100.00
48968;BME280;46511;53.148;8.204;2024-02-28T11:08:10;102143.44;;;7.81;100.00
48968;BME280;46511;53.148;8.204;2024-02-28T11:10:43;102146.19;;;8.49;100.00
48968;BME280;46511;53.148;8.204;2024-02-28T11:13:23;102156.69;;;8.52;100.00
48968;BME280;46511;53.148;8.204;2024-02-28T11:16:06;102151.88;;;7.59;100.00
48968;BME280;46511;53.148;8.204;2024-02-28T11:18:48;102153.69;;;7.96;100.00
48968;BME280;46511;53.148;8.204;2024-02-28T11:21:24;102155.88;;;7.37;100.00
48968;BME280;46511;53.148;8.204;2024-02-28T11:23:57;102156.50;;;7.48;100.00
48968;BME280;46511;53.148;8.204;2024-02-28T11:26:29;102163.31;;;7.60;100.00
48968;BME280;46511;53.148;8.204;2024-02-28T11:29:01;102157.09;;;7.99;100.00
48968;BME280;46511;53.148;8.204;2024-02-28T11:31:32;102159.72;;;8.01;100.00
48968;BME280;46511;53.148;8.204;2024-02-28T11:34:04;102148.38;;;7.96;100.00
48968;BME280;46511;53.148;8.204;2024-02-28T11:36:35;102155.63;;;8.23;100.00
48968;BME280;46511;53.148;8.204;2024-02-28T11:39:07;102152.38;;;8.82;100.00
48968;BME280;46511;53.148;8.204;2024-02-28T11:41:38;102139.81;;;8.56;100.00
48968;BME280;46511;53.148;8.204;2024-02-28T11:44:10;102144.31;;;9.16;100.00
48968;BME280;46511;53.148;8.204;2024-02-28T11:46:42;102135.44;;;8.55;100.00
48968;BME280;46511;53.148;8.204;2024-02-28T11:49:17;102130.91;;;8.58;100.00
48968;BME280;46511;53.148;8.204;2024-02-28T11:51:49;102135.19;;;8.95;100.00
48968;BME280;46511;53.148;8.204;2024-02-28T11:54:20;102137.25;;;8.53;100.00
48968;BME280;46511;53.148;8.204;2024-02-28T11:56:51;102133.28;;;8.69;100.00
48968;BME280;46511;53.148;8.204;2024-02-28T11:59:23;102127.53;;;8.53;100.00
48968;BME280;46511;53.148;8.204;2024-02-28T12:01:54;102124.94;;;9.71;100.00
48968;BME280;46511;53.148;8.204;2024-02-28T12:04:26;102125.41;;;9.84;100.00
48968;BME280;46511;53.148;8.204;2024-02-28T12:06:57;102122.28;;;9.71;100.00
48968;BME280;46511;53.148;8.204;2024-02-28T12:09:29;102129.84;;;10.38;100.00
48968;BME280;46511;53.148;8.204;2024-02-28T12:12:01;102128.63;;;9.08;100.00
48968;BME280;46511;53.148;8.204;2024-02-28T12:14:37;102125.97;;;9.10;100.00
48968;BME280;46511;53.148;8.204;2024-02-28T12:17:08;102117.34;;;9.31;100.00
48968;BME280;46511;53.148;8.204;2024-02-28T12:19:41;102127.19;;;9.56;100.00
48968;BME280;46511;53.148;8.204;2024-02-28T12:22:13;102115.88;;;8.92;100.00
48968;BME280;46511;53.148;8.204;2024-02-28T12:24:44;102118.59;;;8.88;100.00
48968;BME280;46511;53.148;8.204;2024-02-28T12:27:16;102107.09;;;8.90;100.00
48968;BME280;46511;53.148;8.204;2024-02-28T12:29:47;102111.47;;;8.91;100.00
48968;BME280;46511;53.148;8.204;2024-02-28T12:32:18;102105.22;;;9.80;100.00
48968;BME280;46511;53.148;8.204;2024-02-28T12:34:50;102097.84;;;10.41;100.00
48968;BME280;46511;53.148;8.204;2024-02-28T12:37:21;102092.59;;;10.13;100.00
48968;BME280;46511;53.148;8.204;2024-02-28T12:39:52;102085.91;;;10.78;100.00
48968;BME280;46511;53.148;8.204;2024-02-28T12:42:24;102078.38;;;12.23;100.00
48968;BME280;46511;53.148;8.204;2024-02-28T12:44:56;102084.31;;;11.42;100.00
48968;BME280;46511;53.148;8.204;2024-02-28T12:47:27;102070.47;;;12.00;100.00
48968;BME280;46511;53.148;8.204;2024-02-28T12:50:01;102071.28;;;13.40;100.00
48968;BME280;46511;53.148;8.204;2024-02-28T12:52:32;102062.06;;;14.18;97.51
48968;BME280;46511;53.148;8.204;2024-02-28T12:55:04;102068.94;;;12.55;100.00
48968;BME280;46511;53.148;8.204;2024-02-28T12:57:36;102065.94;;;12.02;100.00
48968;BME280;46511;53.148;8.204;2024-02-28T13:00:07;102064.53;;;11.04;100.00
48968;BME280;46511;53.148;8.204;2024-02-28T13:02:39;102076.28;;;10.50;100.00
48968;BME280;46511;53.148;8.204;2024-02-28T13:05:11;102069.03;;;11.26;100.00
48968;BME280;46511;53.148;8.204;2024-02-28T13:07:44;102056.88;;;11.86;100.00
48968;BME280;46511;53.148;8.204;2024-02-28T13:10:15;102054.09;;;12.09;100.00
48968;BME280;46511;53.148;8.204;2024-02-28T13:12:41;102058.25;;;12.16;100.00